sensor_id;sensor_type;location;lat;lon;timestamp;pressure;altitude;pressure_sealevel;temperature;humidity
74466;BME280;62916;50.044;15.938;2023-07-13T00:01:45;98674.29;;;28.24;46.17
74466;BME280;62916;50.044;15.938;2023-07-13T00:04:20;98678.52;;;28.24;46.13
74466;BME280;62916;50.044;15.938;2023-07-13T00:06:52;98688.45;;;28.24;46.04
74466;BME280;62916;50.044;15.938;2023-07-13T00:09:23;98693.14;;;28.22;46.11
74466;BME280;62916;50.044;15.938;2023-07-13T00:11:56;98691.57;;;28.20;46.07
74466;BME280;62916;50.044;15.938;2023-07-13T00:14:29;98692.52;;;28.17;46.27
74466;BME280;62916;50.044;15.938;2023-07-13T00:17:00;98695.88;;;28.16;46.13
74466;BME280;62916;50.044;15.938;2023-07-13T00:19:31;98702.88;;;28.15;46.22
74466;BME280;62916;50.044;15.938;2023-07-13T00:22:01;98712.33;;;28.15;46.15
74466;BME280;62916;50.044;15.938;2023-07-13T00:24:32;98719.85;;;28.13;46.26
74466;BME280;62916;50.044;15.938;2023-07-13T00:27:05;98731.30;;;28.16;46.36
74466;BME280;62916;50.044;15.938;2023-07-13T00:29:37;98729.58;;;28.17;46.27
74466;BME280;62916;50.044;15.938;2023-07-13T00:32:09;98726.19;;;28.19;46.41
74466;BME280;62916;50.044;15.938;2023-07-13T00:34:40;98723.49;;;28.20;46.36
74466;BME280;62916;50.044;15.938;2023-07-13T00:37:11;98717.39;;;28.20;46.26
74466;BME280;62916;50.044;15.938;2023-07-13T00:39:44;98711.81;;;28.18;46.41
74466;BME280;62916;50.044;15.938;2023-07-13T00:42:14;98708.34;;;28.19;46.54
74466;BME280;62916;50.044;15.938;2023-07-13T00:45:03;98710.27;;;28.18;46.56
74466;BME280;62916;50.044;15.938;2023-07-13T00:47:34;98712.14;;;28.17;46.66
74466;BME280;62916;50.044;15.938;2023-07-13T00:50:07;98703.59;;;28.17;46.89
74466;BME280;62916;50.044;15.938;2023-07-13T00:52:40;98699.09;;;28.17;46.88
74466;BME280;62916;50.044;15.938;2023-07-13T00:55:13;98693.23;;;28.17;46.80
74466;BME280;62916;50.044;15.938;2023-07-13T00:57:45;98682.15;;;28.17;46.90
74466;BME280;62916;50.044;15.938;2023-07-13T01:00:18;98671.94;;;28.16;47.12
74466;BME280;62916;50.044;15.938;2023-07-13T01:02:51;98665.91;;;28.16;46.98
74466;BME280;62916;50.044;15.938;2023-07-13T01:05:22;98660.58;;;28.14;46.95
74466;BME280;62916;50.044;15.938;2023-07-13T01:07:55;98655.20;;;28.14;47.10
74466;BME280;62916;50.044;15.938;2023-07-13T01:10:26;98644.88;;;28.15;46.93
74466;BME280;62916;50.044;15.938;2023-07-13T01:12:57;98643.86;;;28.17;46.94
74466;BME280;62916;50.044;15.938;2023-07-13T01:15:38;98640.14;;;28.18;46.88
74466;BME280;62916;50.044;15.938;2023-07-13T01:18:12;98638.91;;;28.17;46.80
74466;BME280;62916;50.044;15.938;2023-07-13T01:20:47;98640.59;;;28.16;46.82
74466;BME280;62916;50.044;15.938;2023-07-13T01:23:18;98635.81;;;28.14;46.62
74466;BME280;62916;50.044;15.938;2023-07-13T01:25:50;98639.25;;;28.15;46.72
74466;BME280;62916;50.044;15.938;2023-07-13T01:28:21;98636.38;;;28.14;46.97
74466;BME280;62916;50.044;15.938;2023-07-13T01:30:58;98629.04;;;28.14;46.82
74466;BME280;62916;50.044;15.938;2023-07-13T01:33:29;98627.80;;;28.14;46.77
74466;BME280;62916;50.044;15.938;2023-07-13T01:35:59;98630.16;;;28.13;46.99
74466;BME280;62916;50.044;15.938;2023-07-13T01:38:31;98631.71;;;28.13;46.99
74466;BME280;62916;50.044;15.938;2023-07-13T01:41:03;98627.86;;;28.12;46.95
74466;BME280;62916;50.044;15.938;2023-07-13T01:43:34;98625.27;;;28.12;47.05
74466;BME280;62916;50.044;15.938;2023-07-13T01:46:04;98618.86;;;28.10;46.98
74466;BME280;62916;50.044;15.938;2023-07-13T01:48:51;98616.42;;;28.11;47.18
74466;BME280;62916;50.044;15.938;2023-07-13T01:51:22;98604.30;;;28.10;47.23
74466;BME280;62916;50.044;15.938;2023-07-13T01:53:53;98599.97;;;28.10;47.21
74466;BME280;62916;50.044;15.938;2023-07-13T01:56:24;98594.41;;;28.08;47.44
74466;BME280;62916;50.044;15.938;2023-07-13T01:58:55;98589.92;;;28.07;47.43
74466;BME280;62916;50.044;15.938;2023-07-13T02:01:26;98586.00;;;28.07;47.42
74466;BME280;62916;50.044;15.938;2023-07-13T02:03:58;98592.77;;;28.07;47.31
74466;BME280;62916;50.044;15.938;2023-07-13T02:06:28;98595.85;;;28.06;47.40
74466;BME280;62916;50.044;15.938;2023-07-13T02:08:59;98599.59;;;28.06;47.26
74466;BME280;62916;50.044;15.938;2023-07-13T02:11:30;98603.98;;;28.06;47.33
74466;BME280;62916;50.044;15.938;2023-07-13T02:14:03;98604.27;;;28.03;47.13
74466;BME280;62916;50.044;15.938;2023-07-13T02:16:34;98604.52;;;28.04;47.32
74466;BME280;62916;50.044;15.938;2023-07-13T02:19:05;98601.83;;;28.04;47.29
74466;BME280;62916;50.044;15.938;2023-07-13T02:21:36;98593.58;;;28.03;47.21
74466;BME280;62916;50.044;15.938;2023-07-13T02:24:08;98595.27;;;28.02;47.22
74466;BME280;62916;50.044;15.938;2023-07-13T02:26:38;98600.95;;;28.01;47.23
74466;BME280;62916;50.044;15.938;2023-07-13T02:29:09;98606.40;;;27.99;47.27
74466;BME280;62916;50.044;15.938;2023-07-13T02:31:40;98612.52;;;27.99;47.18
74466;BME280;62916;50.044;15.938;2023-07-13T02:34:11;98620.25;;;28.00;47.25
74466;BME280;62916;50.044;15.938;2023-07-13T02:36:42;98630.69;;;28.01;47.04
74466;BME280;62916;50.044;15.938;2023-07-13T02:39:13;98633.79;;;28.01;47.27
74466;BME280;62916;50.044;15.938;2023-07-13T02:41:44;98635.08;;;28.01;47.13
74466;BME280;62916;50.044;15.938;2023-07-13T02:44:15;98639.40;;;28.01;47.13
74466;BME280;62916;50.044;15.938;2023-07-13T02:46:46;98641.84;;;28.00;47.09
74466;BME280;62916;50.044;15.938;2023-07-13T02:49:17;98639.17;;;27.96;47.23
74466;BME280;62916;50.044;15.938;2023-07-13T02:51:48;98641.40;;;27.93;47.37
74466;BME280;62916;50.044;15.938;2023-07-13T02:54:18;98644.30;;;27.91;47.18
74466;BME280;62916;50.044;15.938;2023-07-13T02:56:50;98647.98;;;27.92;47.31
74466;BME280;62916;50.044;15.938;2023-07-13T02:59:21;98648.43;;;27.94;47.31
74466;BME280;62916;50.044;15.938;2023-07-13T03:01:51;98651.73;;;27.93;47.33
74466;BME280;62916;50.044;15.938;2023-07-13T03:04:22;98654.32;;;27.91;47.27
74466;BME280;62916;50.044;15.938;2023-07-13T03:06:53;98654.81;;;27.92;47.20
74466;BME280;62916;50.044;15.938;2023-07-13T03:09:27;98655.04;;;27.91;47.18
74466;BME280;62916;50.044;15.938;2023-07-13T03:11:57;98656.33;;;27.90;47.23
74466;BME280;62916;50.044;15.938;2023-07-13T03:14:29;98665.54;;;27.91;47.17
74466;BME280;62916;50.044;15.938;2023-07-13T03:17:00;98666.78;;;27.92;47.30
74466;BME280;62916;50.044;15.938;2023-07-13T03:19:31;98669.05;;;27.91;47.33
74466;BME280;62916;50.044;15.938;2023-07-13T03:22:01;98661.39;;;27.91;47.29
74466;BME280;62916;50.044;15.938;2023-07-13T03:24:36;98666.02;;;27.90;47.05
74466;BME280;62916;50.044;15.938;2023-07-13T03:27:09;98670.77;;;27.91;47.24
74466;BME280;62916;50.044;15.938;2023-07-13T03:29:39;98677.69;;;27.92;47.11
74466;BME280;62916;50.044;15.938;2023-07-13T03:32:10;98674.58;;;27.91;47.21
74466;BME280;62916;50.044;15.938;2023-07-13T03:34:41;98673.17;;;27.89;47.27
74466;BME280;62916;50.044;15.938;2023-07-13T03:37:12;98673.31;;;27.87;47.31
74466;BME280;62916;50.044;15.938;2023-07-13T03:39:43;98676.44;;;27.85;47.39
74466;BME280;62916;50.044;15.938;2023-07-13T03:42:14;98686.73;;;27.82;47.46
74466;BME280;62916;50.044;15.938;2023-07-13T03:44:46;98696.97;;;27.81;47.59
74466;BME280;62916;50.044;15.938;2023-07-13T03:47:21;98698.64;;;27.78;47.52
74466;BME280;62916;50.044;15.938;2023-07-13T03:49:53;98692.16;;;27.75;47.54
74466;BME280;62916;50.044;15.938;2023-07-13T03:52:23;98691.70;;;27.73;47.74
74466;BME280;62916;50.044;15.938;2023-07-13T03:54:54;98694.58;;;27.71;47.67
74466;BME280;62916;50.044;15.938;2023-07-13T03:57:25;98691.86;;;27.69;47.93
74466;BME280;62916;50.044;15.938;2023-07-13T03:59:56;98690.54;;;27.67;47.88
74466;BME280;62916;50.044;15.938;2023-07-13T04:02:27;98700.94;;;27.66;47.91
74466;BME280;62916;50.044;15.938;2023-07-13T04:04:58;98710.41;;;27.68;47.94
74466;BME280;62916;50.044;15.938;2023-07-13T04:07:29;98717.22;;;27.75;47.84
74466;BME280;62916;50.044;15.938;2023-07-13T04:10:00;98723.75;;;27.81;47.93
74466;BME280;62916;50.044;15.938;2023-07-13T04:12:30;98724.59;;;27.86;47.83
74466;BME280;62916;50.044;15.938;2023-07-13T04:15:01;98725.94;;;27.90;47.92
74466;BME280;62916;50.044;15.938;2023-07-13T04:17:32;98722.00;;;27.92;48.01
74466;BME280;62916;50.044;15.938;2023-07-13T04:20:04;98723.50;;;27.98;47.98
74466;BME280;62916;50.044;15.938;2023-07-13T04:22:35;98719.86;;;28.00;47.86
74466;BME280;62916;50.044;15.938;2023-07-13T04:25:08;98725.45;;;28.03;47.83
74466;BME280;62916;50.044;15.938;2023-07-13T04:27:39;98719.84;;;28.03;47.61
74466;BME280;62916;50.044;15.938;2023-07-13T04:30:11;98723.96;;;28.06;47.66
74466;BME280;62916;50.044;15.938;2023-07-13T04:32:42;98721.90;;;28.08;47.61
74466;BME280;62916;50.044;15.938;2023-07-13T04:35:13;98723.50;;;28.12;47.74
74466;BME280;62916;50.044;15.938;2023-07-13T04:37:43;98721.73;;;28.14;47.65
74466;BME280;62916;50.044;15.938;2023-07-13T04:40:15;98726.10;;;28.16;47.55
74466;BME280;62916;50.044;15.938;2023-07-13T04:42:46;98726.41;;;28.17;47.58
74466;BME280;62916;50.044;15.938;2023-07-13T04:45:17;98729.04;;;28.19;47.52
74466;BME280;62916;50.044;15.938;2023-07-13T04:47:48;98732.97;;;28.22;47.54
74466;BME280;62916;50.044;15.938;2023-07-13T04:50:19;98733.26;;;28.24;47.35
74466;BME280;62916;50.044;15.938;2023-07-13T04:52:52;98735.73;;;28.25;47.28
74466;BME280;62916;50.044;15.938;2023-07-13T04:55:23;98737.15;;;28.27;47.27
74466;BME280;62916;50.044;15.938;2023-07-13T04:57:54;98730.10;;;28.29;47.25
74466;BME280;62916;50.044;15.938;2023-07-13T05:00:25;98728.80;;;28.30;47.18
74466;BME280;62916;50.044;15.938;2023-07-13T05:02:57;98732.89;;;28.31;47.13
74466;BME280;62916;50.044;15.938;2023-07-13T05:05:29;98731.83;;;28.31;47.18
74466;BME280;62916;50.044;15.938;2023-07-13T05:08:00;98729.17;;;28.33;47.19
74466;BME280;62916;50.044;15.938;2023-07-13T05:10:31;98724.05;;;28.33;47.05
74466;BME280;62916;50.044;15.938;2023-07-13T05:13:02;98723.27;;;28.34;47.02
74466;BME280;62916;50.044;15.938;2023-07-13T05:15:34;98726.52;;;28.35;47.06
74466;BME280;62916;50.044;15.938;2023-07-13T05:18:05;98725.40;;;28.36;46.96
74466;BME280;62916;50.044;15.938;2023-07-13T05:20:36;98728.18;;;28.36;47.12
74466;BME280;62916;50.044;15.938;2023-07-13T05:23:06;98732.21;;;28.38;46.98
74466;BME280;62916;50.044;15.938;2023-07-13T05:25:37;98733.95;;;28.40;46.95
74466;BME280;62916;50.044;15.938;2023-07-13T05:28:08;98735.24;;;28.40;47.03
74466;BME280;62916;50.044;15.938;2023-07-13T05:30:39;98739.41;;;28.41;47.05
74466;BME280;62916;50.044;15.938;2023-07-13T05:33:10;98738.95;;;28.42;47.05
74466;BME280;62916;50.044;15.938;2023-07-13T05:35:41;98739.62;;;28.43;47.06
74466;BME280;62916;50.044;15.938;2023-07-13T05:38:11;98737.36;;;28.45;46.96
74466;BME280;62916;50.044;15.938;2023-07-13T05:40:43;98743.58;;;28.46;46.95
74466;BME280;62916;50.044;15.938;2023-07-13T05:43:15;98749.15;;;28.47;46.99
74466;BME280;62916;50.044;15.938;2023-07-13T05:45:46;98749.73;;;28.48;46.90
74466;BME280;62916;50.044;15.938;2023-07-13T05:48:16;98745.33;;;28.48;46.95
74466;BME280;62916;50.044;15.938;2023-07-13T05:50:47;98742.77;;;28.46;47.03
74466;BME280;62916;50.044;15.938;2023-07-13T05:53:18;98746.83;;;28.49;46.86
74466;BME280;62916;50.044;15.938;2023-07-13T05:55:49;98753.17;;;28.50;46.85
74466;BME280;62916;50.044;15.938;2023-07-13T05:58:22;98756.02;;;28.50;46.88
74466;BME280;62916;50.044;15.938;2023-07-13T06:01:00;98757.02;;;28.51;46.93
74466;BME280;62916;50.044;15.938;2023-07-13T06:03:33;98754.00;;;28.50;46.88
74466;BME280;62916;50.044;15.938;2023-07-13T06:06:05;98757.14;;;28.53;46.93
74466;BME280;62916;50.044;15.938;2023-07-13T06:08:37;98759.66;;;28.52;46.90
74466;BME280;62916;50.044;15.938;2023-07-13T06:11:12;98762.70;;;28.53;46.99
74466;BME280;62916;50.044;15.938;2023-07-13T06:13:43;98768.66;;;28.54;46.91
74466;BME280;62916;50.044;15.938;2023-07-13T06:16:15;98766.16;;;28.56;46.82
74466;BME280;62916;50.044;15.938;2023-07-13T06:18:47;98770.40;;;28.56;46.81
74466;BME280;62916;50.044;15.938;2023-07-13T06:21:19;98763.73;;;28.57;46.83
74466;BME280;62916;50.044;15.938;2023-07-13T06:23:52;98769.77;;;28.57;46.83
74466;BME280;62916;50.044;15.938;2023-07-13T06:26:23;98775.16;;;28.58;46.85
74466;BME280;62916;50.044;15.938;2023-07-13T06:28:53;98775.58;;;28.58;46.80
74466;BME280;62916;50.044;15.938;2023-07-13T06:31:25;98779.58;;;28.59;46.84
74466;BME280;62916;50.044;15.938;2023-07-13T06:33:56;98782.02;;;28.59;46.78
74466;BME280;62916;50.044;15.938;2023-07-13T06:36:27;98781.46;;;28.60;46.90
74466;BME280;62916;50.044;15.938;2023-07-13T06:38:58;98783.83;;;28.59;46.91
74466;BME280;62916;50.044;15.938;2023-07-13T06:41:29;98785.22;;;28.60;46.74
74466;BME280;62916;50.044;15.938;2023-07-13T06:44:00;98783.90;;;28.60;46.81
74466;BME280;62916;50.044;15.938;2023-07-13T06:46:31;98782.77;;;28.60;46.56
74466;BME280;62916;50.044;15.938;2023-07-13T06:49:01;98781.15;;;28.61;46.78
74466;BME280;62916;50.044;15.938;2023-07-13T06:51:32;98783.27;;;28.62;46.79
74466;BME280;62916;50.044;15.938;2023-07-13T06:54:03;98781.16;;;28.62;46.86
74466;BME280;62916;50.044;15.938;2023-07-13T06:56:34;98783.70;;;28.63;46.83
74466;BME280;62916;50.044;15.938;2023-07-13T06:59:05;98789.58;;;28.63;46.72
74466;BME280;62916;50.044;15.938;2023-07-13T07:01:36;98793.98;;;28.63;46.73
74466;BME280;62916;50.044;15.938;2023-07-13T07:04:10;98805.40;;;28.63;46.70
74466;BME280;62916;50.044;15.938;2023-07-13T07:06:41;98809.15;;;28.63;46.76
74466;BME280;62916;50.044;15.938;2023-07-13T07:09:12;98816.84;;;28.65;46.78
74466;BME280;62916;50.044;15.938;2023-07-13T07:11:45;98818.73;;;28.65;46.67
74466;BME280;62916;50.044;15.938;2023-07-13T07:14:32;98819.16;;;28.66;46.61
74466;BME280;62916;50.044;15.938;2023-07-13T07:17:04;98817.38;;;28.67;46.57
74466;BME280;62916;50.044;15.938;2023-07-13T07:19:36;98820.24;;;28.68;46.68
74466;BME280;62916;50.044;15.938;2023-07-13T07:22:08;98825.64;;;28.68;46.71
74466;BME280;62916;50.044;15.938;2023-07-13T07:24:39;98831.70;;;28.69;46.60
74466;BME280;62916;50.044;15.938;2023-07-13T07:27:10;98833.98;;;28.69;46.56
74466;BME280;62916;50.044;15.938;2023-07-13T07:29:44;98833.33;;;28.69;46.54
74466;BME280;62916;50.044;15.938;2023-07-13T07:32:35;98831.69;;;28.69;46.54
74466;BME280;62916;50.044;15.938;2023-07-13T07:35:09;98839.94;;;28.70;46.53
74466;BME280;62916;50.044;15.938;2023-07-13T07:37:40;98843.77;;;28.70;46.36
74466;BME280;62916;50.044;15.938;2023-07-13T07:40:13;98843.36;;;28.71;46.36
74466;BME280;62916;50.044;15.938;2023-07-13T07:42:47;98849.95;;;28.69;46.44
74466;BME280;62916;50.044;15.938;2023-07-13T07:45:18;98852.50;;;28.71;46.36
74466;BME280;62916;50.044;15.938;2023-07-13T07:47:49;98856.17;;;28.71;46.21
74466;BME280;62916;50.044;15.938;2023-07-13T07:50:20;98860.67;;;28.73;46.10
74466;BME280;62916;50.044;15.938;2023-07-13T07:52:51;98862.63;;;28.72;45.91
74466;BME280;62916;50.044;15.938;2023-07-13T07:55:23;98862.31;;;28.73;46.01
74466;BME280;62916;50.044;15.938;2023-07-13T07:57:59;98863.05;;;28.73;45.86
74466;BME280;62916;50.044;15.938;2023-07-13T08:00:32;98862.83;;;28.74;45.83
74466;BME280;62916;50.044;15.938;2023-07-13T08:03:24;98861.27;;;28.73;45.83
74466;BME280;62916;50.044;15.938;2023-07-13T08:05:58;98861.92;;;28.74;45.95
74466;BME280;62916;50.044;15.938;2023-07-13T08:08:49;98869.21;;;28.75;45.88
74466;BME280;62916;50.044;15.938;2023-07-13T08:11:22;98868.55;;;28.75;45.70
74466;BME280;62916;50.044;15.938;2023-07-13T08:13:56;98874.45;;;28.76;45.74
74466;BME280;62916;50.044;15.938;2023-07-13T08:16:27;98873.89;;;28.77;45.65
74466;BME280;62916;50.044;15.938;2023-07-13T08:18:58;98876.92;;;28.77;45.65
74466;BME280;62916;50.044;15.938;2023-07-13T08:21:29;98876.20;;;28.78;45.61
74466;BME280;62916;50.044;15.938;2023-07-13T08:24:00;98877.35;;;28.77;45.58
74466;BME280;62916;50.044;15.938;2023-07-13T08:26:31;98876.14;;;28.78;45.55
74466;BME280;62916;50.044;15.938;2023-07-13T08:29:02;98867.43;;;28.78;45.56
74466;BME280;62916;50.044;15.938;2023-07-13T08:31:33;98874.63;;;28.79;45.56
74466;BME280;62916;50.044;15.938;2023-07-13T08:34:04;98878.39;;;28.81;45.48
74466;BME280;62916;50.044;15.938;2023-07-13T08:36:35;98880.11;;;28.81;45.53
74466;BME280;62916;50.044;15.938;2023-07-13T08:39:06;98882.64;;;28.81;45.50
74466;BME280;62916;50.044;15.938;2023-07-13T08:41:37;98879.58;;;28.84;45.44
74466;BME280;62916;50.044;15.938;2023-07-13T08:44:18;98878.02;;;28.84;45.48
74466;BME280;62916;50.044;15.938;2023-07-13T08:46:54;98876.81;;;28.84;45.28
74466;BME280;62916;50.044;15.938;2023-07-13T08:49:27;98884.64;;;28.84;45.28
74466;BME280;62916;50.044;15.938;2023-07-13T08:52:01;98888.48;;;28.85;45.32
74466;BME280;62916;50.044;15.938;2023-07-13T08:54:37;98895.00;;;28.85;45.32
74466;BME280;62916;50.044;15.938;2023-07-13T08:57:14;98889.38;;;28.85;45.32
74466;BME280;62916;50.044;15.938;2023-07-13T08:59:46;98892.02;;;28.86;45.31
74466;BME280;62916;50.044;15.938;2023-07-13T09:02:25;98889.92;;;28.87;45.39
74466;BME280;62916;50.044;15.938;2023-07-13T09:05:00;98894.66;;;28.88;45.21
74466;BME280;62916;50.044;15.938;2023-07-13T09:07:46;98900.16;;;28.89;45.33
74466;BME280;62916;50.044;15.938;2023-07-13T09:10:26;98896.99;;;28.90;45.34
74466;BME280;62916;50.044;15.938;2023-07-13T09:13:07;98899.36;;;28.91;45.20
74466;BME280;62916;50.044;15.938;2023-07-13T09:15:47;98897.00;;;28.91;45.24
74466;BME280;62916;50.044;15.938;2023-07-13T09:18:18;98894.46;;;28.90;45.07
74466;BME280;62916;50.044;15.938;2023-07-13T09:20:52;98901.88;;;28.91;45.20
74466;BME280;62916;50.044;15.938;2023-07-13T09:23:27;98906.08;;;28.93;45.16
74466;BME280;62916;50.044;15.938;2023-07-13T09:26:04;98910.68;;;28.95;45.15
74466;BME280;62916;50.044;15.938;2023-07-13T09:28:40;98906.52;;;28.96;45.08
74466;BME280;62916;50.044;15.938;2023-07-13T09:31:16;98906.94;;;28.96;45.08
74466;BME280;62916;50.044;15.938;2023-07-13T09:33:49;98911.28;;;28.96;45.14
74466;BME280;62916;50.044;15.938;2023-07-13T09:36:23;98919.95;;;28.98;44.94
74466;BME280;62916;50.044;15.938;2023-07-13T09:39:02;98921.43;;;28.98;45.01
74466;BME280;62916;50.044;15.938;2023-07-13T09:41:40;98920.71;;;28.99;45.07
74466;BME280;62916;50.044;15.938;2023-07-13T09:44:13;98923.83;;;29.00;45.12
74466;BME280;62916;50.044;15.938;2023-07-13T09:46:45;98920.23;;;29.00;45.08
74466;BME280;62916;50.044;15.938;2023-07-13T09:49:17;98921.94;;;28.99;45.16
74466;BME280;62916;50.044;15.938;2023-07-13T09:51:49;98923.17;;;29.00;45.05
74466;BME280;62916;50.044;15.938;2023-07-13T09:54:28;98922.45;;;29.01;45.22
74466;BME280;62916;50.044;15.938;2023-07-13T09:56:59;98924.81;;;29.02;45.22
74466;BME280;62916;50.044;15.938;2023-07-13T09:59:33;98921.48;;;29.02;45.06
74466;BME280;62916;50.044;15.938;2023-07-13T10:02:24;98920.20;;;29.03;45.16
74466;BME280;62916;50.044;15.938;2023-07-13T10:04:59;98926.16;;;29.04;44.93
74466;BME280;62916;50.044;15.938;2023-07-13T10:07:32;98927.23;;;29.04;45.01
74466;BME280;62916;50.044;15.938;2023-07-13T10:10:12;98931.89;;;29.04;44.96
74466;BME280;62916;50.044;15.938;2023-07-13T10:12:45;98938.09;;;29.05;45.09
74466;BME280;62916;50.044;15.938;2023-07-13T10:15:18;98935.54;;;29.04;44.92
74466;BME280;62916;50.044;15.938;2023-07-13T10:17:54;98937.16;;;29.07;45.05
74466;BME280;62916;50.044;15.938;2023-07-13T10:20:28;98933.09;;;29.07;45.10
74466;BME280;62916;50.044;15.938;2023-07-13T10:23:02;98929.66;;;29.07;45.11
74466;BME280;62916;50.044;15.938;2023-07-13T10:25:37;98930.11;;;29.09;44.95
74466;BME280;62916;50.044;15.938;2023-07-13T10:28:19;98937.38;;;29.10;45.15
74466;BME280;62916;50.044;15.938;2023-07-13T10:30:54;98940.65;;;29.12;45.07
74466;BME280;62916;50.044;15.938;2023-07-13T10:33:27;98942.23;;;29.13;45.03
74466;BME280;62916;50.044;15.938;2023-07-13T10:36:03;98939.13;;;29.13;45.04
74466;BME280;62916;50.044;15.938;2023-07-13T10:38:36;98935.55;;;29.14;44.91
74466;BME280;62916;50.044;15.938;2023-07-13T10:41:12;98931.89;;;29.14;44.86
74466;BME280;62916;50.044;15.938;2023-07-13T10:43:49;98929.11;;;29.14;45.01
74466;BME280;62916;50.044;15.938;2023-07-13T10:46:25;98926.83;;;29.14;45.01
74466;BME280;62916;50.044;15.938;2023-07-13T10:48:59;98928.45;;;29.14;44.94
74466;BME280;62916;50.044;15.938;2023-07-13T10:51:32;98931.73;;;29.15;44.94
74466;BME280;62916;50.044;15.938;2023-07-13T10:54:18;98931.91;;;29.16;44.82
74466;BME280;62916;50.044;15.938;2023-07-13T10:59:43;98926.55;;;29.16;44.94
74466;BME280;62916;50.044;15.938;2023-07-13T11:02:25;98925.58;;;29.17;44.92
74466;BME280;62916;50.044;15.938;2023-07-13T11:04:58;98924.73;;;29.16;44.97
74466;BME280;62916;50.044;15.938;2023-07-13T11:07:56;98930.65;;;29.18;44.54
74466;BME280;62916;50.044;15.938;2023-07-13T11:10:51;98927.90;;;29.19;44.86
74466;BME280;62916;50.044;15.938;2023-07-13T11:13:57;98932.07;;;29.19;44.73
74466;BME280;62916;50.044;15.938;2023-07-13T11:16:37;98938.92;;;29.19;44.81
74466;BME280;62916;50.044;15.938;2023-07-13T11:19:27;98938.91;;;29.19;44.84
74466;BME280;62916;50.044;15.938;2023-07-13T11:22:15;98936.08;;;29.21;44.77
74466;BME280;62916;50.044;15.938;2023-07-13T11:24:59;98937.88;;;29.21;44.97
74466;BME280;62916;50.044;15.938;2023-07-13T11:27:37;98934.61;;;29.21;44.71
74466;BME280;62916;50.044;15.938;2023-07-13T11:30:24;98934.55;;;29.23;44.69
74466;BME280;62916;50.044;15.938;2023-07-13T11:33:08;98933.48;;;29.21;44.70
74466;BME280;62916;50.044;15.938;2023-07-13T11:35:50;98932.11;;;29.23;44.65
74466;BME280;62916;50.044;15.938;2023-07-13T11:38:24;98935.30;;;29.24;44.70
74466;BME280;62916;50.044;15.938;2023-07-13T11:41:02;98931.89;;;29.25;44.75
74466;BME280;62916;50.044;15.938;2023-07-13T11:43:34;98927.11;;;29.26;44.67
74466;BME280;62916;50.044;15.938;2023-07-13T11:46:17;98922.80;;;29.27;44.53
74466;BME280;62916;50.044;15.938;2023-07-13T11:48:51;98919.05;;;29.27;44.60
74466;BME280;62916;50.044;15.938;2023-07-13T11:51:25;98918.39;;;29.27;44.49
74466;BME280;62916;50.044;15.938;2023-07-13T11:54:05;98918.40;;;29.27;44.54
74466;BME280;62916;50.044;15.938;2023-07-13T11:56:37;98910.73;;;29.28;44.52
74466;BME280;62916;50.044;15.938;2023-07-13T11:59:11;98910.48;;;29.28;44.60
74466;BME280;62916;50.044;15.938;2023-07-13T12:01:46;98911.90;;;29.29;44.38
74466;BME280;62916;50.044;15.938;2023-07-13T12:04:24;98915.56;;;29.29;44.40
74466;BME280;62916;50.044;15.938;2023-07-13T12:07:05;98916.08;;;29.30;44.46
74466;BME280;62916;50.044;15.938;2023-07-13T12:09:38;98911.18;;;29.30;44.14
74466;BME280;62916;50.044;15.938;2023-07-13T12:12:14;98905.48;;;29.31;44.42
74466;BME280;62916;50.044;15.938;2023-07-13T12:14:50;98908.41;;;29.31;44.47
74466;BME280;62916;50.044;15.938;2023-07-13T12:17:23;98908.89;;;29.32;44.46
74466;BME280;62916;50.044;15.938;2023-07-13T12:19:56;98913.97;;;29.32;44.46
74466;BME280;62916;50.044;15.938;2023-07-13T12:22:28;98917.64;;;29.32;44.51
74466;BME280;62916;50.044;15.938;2023-07-13T12:25:00;98927.92;;;29.32;44.29
74466;BME280;62916;50.044;15.938;2023-07-13T12:27:31;98926.28;;;29.31;44.45
74466;BME280;62916;50.044;15.938;2023-07-13T12:30:06;98936.73;;;29.31;44.32
74466;BME280;62916;50.044;15.938;2023-07-13T12:33:00;98941.79;;;29.32;44.28
74466;BME280;62916;50.044;15.938;2023-07-13T12:35:31;98951.19;;;29.32;44.05
74466;BME280;62916;50.044;15.938;2023-07-13T12:38:04;98960.00;;;29.31;44.02
74466;BME280;62916;50.044;15.938;2023-07-13T12:40:39;98958.59;;;29.29;43.94
74466;BME280;62916;50.044;15.938;2023-07-13T12:43:14;98958.02;;;29.29;43.83
74466;BME280;62916;50.044;15.938;2023-07-13T12:45:58;98954.83;;;29.29;43.89
74466;BME280;62916;50.044;15.938;2023-07-13T12:48:30;98951.98;;;29.30;44.05
74466;BME280;62916;50.044;15.938;2023-07-13T12:51:22;98947.50;;;29.30;44.18
74466;BME280;62916;50.044;15.938;2023-07-13T12:53:58;98944.65;;;29.30;44.01
74466;BME280;62916;50.044;15.938;2023-07-13T12:56:35;98939.39;;;29.29;43.93
74466;BME280;62916;50.044;15.938;2023-07-13T12:59:08;98940.15;;;29.31;44.02
74466;BME280;62916;50.044;15.938;2023-07-13T13:01:46;98934.60;;;29.30;44.05
74466;BME280;62916;50.044;15.938;2023-07-13T13:04:19;98939.59;;;29.30;43.96
74466;BME280;62916;50.044;15.938;2023-07-13T13:07:01;98940.58;;;29.31;44.01
74466;BME280;62916;50.044;15.938;2023-07-13T13:09:33;98935.92;;;29.32;43.98
74466;BME280;62916;50.044;15.938;2023-07-13T13:12:05;98934.23;;;29.33;44.11
74466;BME280;62916;50.044;15.938;2023-07-13T13:14:36;98925.90;;;29.33;44.00
74466;BME280;62916;50.044;15.938;2023-07-13T13:17:19;98926.80;;;29.34;43.93
74466;BME280;62916;50.044;15.938;2023-07-13T13:19:53;98925.90;;;29.33;43.99
74466;BME280;62916;50.044;15.938;2023-07-13T13:22:24;98919.54;;;29.34;43.90
74466;BME280;62916;50.044;15.938;2023-07-13T13:24:55;98922.02;;;29.35;44.05
74466;BME280;62916;50.044;15.938;2023-07-13T13:27:25;98914.66;;;29.34;43.89